sensor_id;sensor_type;location;lat;lon;timestamp;P1;durP1;ratioP1;P2;durP2;ratioP2
47167;SDS011;32931;47.778;17.806;2023-12-22T00:00:05;22.02;;;12.70;;
47167;SDS011;32931;47.778;17.806;2023-12-22T00:02:33;22.48;;;11.05;;
47167;SDS011;32931;47.778;17.806;2023-12-22T00:04:59;17.80;;;10.05;;
47167;SDS011;32931;47.778;17.806;2023-12-22T00:07:25;21.77;;;9.23;;
47167;SDS011;32931;47.778;17.806;2023-12-22T00:09:51;15.50;;;7.72;;
47167;SDS011;32931;47.778;17.806;2023-12-22T00:12:18;8.90;;;5.82;;
47167;SDS011;32931;47.778;17.806;2023-12-22T00:14:44;9.45;;;5.07;;
47167;SDS011;32931;47.778;17.806;2023-12-22T00:17:10;37.25;;;5.13;;
47167;SDS011;32931;47.778;17.806;2023-12-22T00:19:36;7.72;;;3.97;;
47167;SDS011;32931;47.778;17.806;2023-12-22T00:22:02;7.80;;;3.75;;
47167;SDS011;32931;47.778;17.806;2023-12-22T00:24:29;6.32;;;3.03;;
47167;SDS011;32931;47.778;17.806;2023-12-22T00:26:55;7.13;;;2.60;;
47167;SDS011;32931;47.778;17.806;2023-12-22T00:29:21;2.70;;;1.70;;
47167;SDS011;32931;47.778;17.806;2023-12-22T00:31:47;3.28;;;1.10;;
47167;SDS011;32931;47.778;17.806;2023-12-22T00:34:13;3.33;;;1.60;;
47167;SDS011;32931;47.778;17.806;2023-12-22T00:36:39;5.30;;;0.80;;
47167;SDS011;32931;47.778;17.806;2023-12-22T00:39:06;3.10;;;0.60;;
47167;SDS011;32931;47.778;17.806;2023-12-22T00:41:33;2.20;;;0.70;;
47167;SDS011;32931;47.778;17.806;2023-12-22T00:43:59;5.05;;;0.80;;
47167;SDS011;32931;47.778;17.806;2023-12-22T00:46:25;3.80;;;0.82;;
47167;SDS011;32931;47.778;17.806;2023-12-22T00:48:51;3.50;;;0.77;;
47167;SDS011;32931;47.778;17.806;2023-12-22T00:51:18;3.28;;;0.60;;
47167;SDS011;32931;47.778;17.806;2023-12-22T00:53:44;1.35;;;0.50;;
47167;SDS011;32931;47.778;17.806;2023-12-22T00:56:10;1.75;;;0.52;;
47167;SDS011;32931;47.778;17.806;2023-12-22T00:58:39;1.77;;;0.40;;
47167;SDS011;32931;47.778;17.806;2023-12-22T01:01:05;3.00;;;0.40;;
47167;SDS011;32931;47.778;17.806;2023-12-22T01:03:31;1.88;;;0.40;;
47167;SDS011;32931;47.778;17.806;2023-12-22T01:05:58;7.60;;;0.57;;
47167;SDS011;32931;47.778;17.806;2023-12-22T01:08:24;3.97;;;0.55;;
47167;SDS011;32931;47.778;17.806;2023-12-22T01:10:50;1.20;;;0.40;;
47167;SDS011;32931;47.778;17.806;2023-12-22T01:13:16;3.72;;;0.40;;
47167;SDS011;32931;47.778;17.806;2023-12-22T01:15:42;4.30;;;0.60;;
47167;SDS011;32931;47.778;17.806;2023-12-22T01:18:10;3.78;;;0.40;;
47167;SDS011;32931;47.778;17.806;2023-12-22T01:20:36;1.80;;;0.40;;
47167;SDS011;32931;47.778;17.806;2023-12-22T01:23:02;3.10;;;0.60;;
47167;SDS011;32931;47.778;17.806;2023-12-22T01:25:29;1.55;;;0.50;;
47167;SDS011;32931;47.778;17.806;2023-12-22T01:27:55;4.88;;;0.70;;
47167;SDS011;32931;47.778;17.806;2023-12-22T01:30:21;3.35;;;1.20;;
47167;SDS011;32931;47.778;17.806;2023-12-22T01:32:47;6.68;;;2.08;;
47167;SDS011;32931;47.778;17.806;2023-12-22T01:35:13;2.85;;;0.77;;
47167;SDS011;32931;47.778;17.806;2023-12-22T01:37:39;6.15;;;0.80;;
47167;SDS011;32931;47.778;17.806;2023-12-22T01:40:06;2.53;;;0.90;;
47167;SDS011;32931;47.778;17.806;2023-12-22T01:42:33;2.17;;;0.70;;
47167;SDS011;32931;47.778;17.806;2023-12-22T01:44:59;1.98;;;0.80;;
47167;SDS011;32931;47.778;17.806;2023-12-22T01:47:25;2.42;;;0.90;;
47167;SDS011;32931;47.778;17.806;2023-12-22T01:49:51;4.97;;;0.95;;
47167;SDS011;32931;47.778;17.806;2023-12-22T01:52:18;2.70;;;1.00;;
47167;SDS011;32931;47.778;17.806;2023-12-22T01:54:44;4.55;;;0.50;;
47167;SDS011;32931;47.778;17.806;2023-12-22T01:57:12;1.52;;;0.45;;
47167;SDS011;32931;47.778;17.806;2023-12-22T01:59:43;1.60;;;0.50;;
47167;SDS011;32931;47.778;17.806;2023-12-22T02:02:10;1.35;;;0.50;;
47167;SDS011;32931;47.778;17.806;2023-12-22T02:04:36;1.70;;;0.50;;
47167;SDS011;32931;47.778;17.806;2023-12-22T02:07:02;2.60;;;0.50;;
47167;SDS011;32931;47.778;17.806;2023-12-22T02:09:29;5.32;;;0.93;;
47167;SDS011;32931;47.778;17.806;2023-12-22T02:11:56;4.30;;;1.23;;
47167;SDS011;32931;47.778;17.806;2023-12-22T02:14:22;2.47;;;0.80;;
47167;SDS011;32931;47.778;17.806;2023-12-22T02:16:50;2.67;;;0.57;;
47167;SDS011;32931;47.778;17.806;2023-12-22T02:19:39;1.58;;;0.43;;
47167;SDS011;32931;47.778;17.806;2023-12-22T02:22:10;3.85;;;0.80;;
47167;SDS011;32931;47.778;17.806;2023-12-22T02:24:37;2.67;;;0.90;;
47167;SDS011;32931;47.778;17.806;2023-12-22T02:29:45;4.50;;;0.90;;
47167;SDS011;32931;47.778;17.806;2023-12-22T02:32:17;4.30;;;1.02;;
47167;SDS011;32931;47.778;17.806;2023-12-22T02:34:58;4.53;;;0.60;;
47167;SDS011;32931;47.778;17.806;2023-12-22T02:37:28;6.90;;;0.88;;
47167;SDS011;32931;47.778;17.806;2023-12-22T02:39:55;4.40;;;0.82;;
47167;SDS011;32931;47.778;17.806;2023-12-22T02:42:22;2.60;;;0.82;;
47167;SDS011;32931;47.778;17.806;2023-12-22T02:44:56;4.55;;;0.80;;
47167;SDS011;32931;47.778;17.806;2023-12-22T02:47:23;2.33;;;0.77;;
47167;SDS011;32931;47.778;17.806;2023-12-22T02:49:49;4.72;;;0.85;;
47167;SDS011;32931;47.778;17.806;2023-12-22T02:52:15;5.30;;;1.05;;
47167;SDS011;32931;47.778;17.806;2023-12-22T02:54:41;4.30;;;1.00;;
47167;SDS011;32931;47.778;17.806;2023-12-22T02:57:08;3.83;;;0.80;;
47167;SDS011;32931;47.778;17.806;2023-12-22T02:59:34;3.22;;;0.70;;
47167;SDS011;32931;47.778;17.806;2023-12-22T03:02:00;1.38;;;0.60;;
47167;SDS011;32931;47.778;17.806;2023-12-22T03:04:26;3.17;;;0.80;;
47167;SDS011;32931;47.778;17.806;2023-12-22T03:06:52;2.50;;;0.70;;
47167;SDS011;32931;47.778;17.806;2023-12-22T03:09:18;4.53;;;0.70;;
47167;SDS011;32931;47.778;17.806;2023-12-22T03:11:44;8.60;;;1.13;;
47167;SDS011;32931;47.778;17.806;2023-12-22T03:14:10;2.13;;;0.75;;
47167;SDS011;32931;47.778;17.806;2023-12-22T03:16:36;6.90;;;1.10;;
47167;SDS011;32931;47.778;17.806;2023-12-22T03:19:02;7.82;;;1.10;;
47167;SDS011;32931;47.778;17.806;2023-12-22T03:21:29;8.25;;;1.10;;
47167;SDS011;32931;47.778;17.806;2023-12-22T03:23:55;5.63;;;1.02;;
47167;SDS011;32931;47.778;17.806;2023-12-22T03:26:21;5.30;;;1.00;;
47167;SDS011;32931;47.778;17.806;2023-12-22T03:28:47;9.68;;;1.00;;
47167;SDS011;32931;47.778;17.806;2023-12-22T03:31:13;4.82;;;0.95;;
47167;SDS011;32931;47.778;17.806;2023-12-22T03:33:39;5.80;;;0.98;;
47167;SDS011;32931;47.778;17.806;2023-12-22T03:36:05;4.22;;;0.85;;
47167;SDS011;32931;47.778;17.806;2023-12-22T03:38:32;4.40;;;0.90;;
47167;SDS011;32931;47.778;17.806;2023-12-22T03:40:58;4.07;;;0.95;;
47167;SDS011;32931;47.778;17.806;2023-12-22T03:43:24;3.45;;;0.82;;
47167;SDS011;32931;47.778;17.806;2023-12-22T03:45:50;5.53;;;0.90;;
47167;SDS011;32931;47.778;17.806;2023-12-22T03:48:16;8.98;;;0.90;;
47167;SDS011;32931;47.778;17.806;2023-12-22T03:50:42;6.80;;;1.02;;
47167;SDS011;32931;47.778;17.806;2023-12-22T03:53:09;6.72;;;1.25;;
47167;SDS011;32931;47.778;17.806;2023-12-22T03:55:35;6.57;;;1.25;;
47167;SDS011;32931;47.778;17.806;2023-12-22T03:58:01;5.75;;;1.20;;
47167;SDS011;32931;47.778;17.806;2023-12-22T04:00:29;4.00;;;0.95;;
47167;SDS011;32931;47.778;17.806;2023-12-22T04:02:55;8.80;;;1.23;;
47167;SDS011;32931;47.778;17.806;2023-12-22T04:05:21;9.70;;;1.55;;
47167;SDS011;32931;47.778;17.806;2023-12-22T04:07:47;5.18;;;1.40;;
47167;SDS011;32931;47.778;17.806;2023-12-22T04:10:15;6.55;;;1.15;;
47167;SDS011;32931;47.778;17.806;2023-12-22T04:12:43;8.07;;;1.50;;
47167;SDS011;32931;47.778;17.806;2023-12-22T04:15:09;5.65;;;1.13;;
47167;SDS011;32931;47.778;17.806;2023-12-22T04:17:35;6.82;;;1.10;;
47167;SDS011;32931;47.778;17.806;2023-12-22T04:20:01;3.35;;;1.00;;
47167;SDS011;32931;47.778;17.806;2023-12-22T04:22:28;8.45;;;1.00;;
47167;SDS011;32931;47.778;17.806;2023-12-22T04:24:54;5.28;;;1.05;;
47167;SDS011;32931;47.778;17.806;2023-12-22T04:27:20;5.72;;;1.00;;
47167;SDS011;32931;47.778;17.806;2023-12-22T04:29:46;8.82;;;1.25;;
47167;SDS011;32931;47.778;17.806;2023-12-22T04:32:12;6.45;;;1.20;;
47167;SDS011;32931;47.778;17.806;2023-12-22T04:34:38;7.22;;;1.20;;
47167;SDS011;32931;47.778;17.806;2023-12-22T04:37:04;7.00;;;1.30;;
47167;SDS011;32931;47.778;17.806;2023-12-22T04:39:30;8.15;;;1.35;;
47167;SDS011;32931;47.778;17.806;2023-12-22T04:41:56;7.03;;;1.20;;
47167;SDS011;32931;47.778;17.806;2023-12-22T04:44:23;7.75;;;1.50;;
47167;SDS011;32931;47.778;17.806;2023-12-22T04:46:49;10.98;;;1.42;;
47167;SDS011;32931;47.778;17.806;2023-12-22T04:49:17;7.38;;;1.50;;
47167;SDS011;32931;47.778;17.806;2023-12-22T04:51:44;7.65;;;2.05;;
47167;SDS011;32931;47.778;17.806;2023-12-22T04:54:10;11.25;;;2.00;;
47167;SDS011;32931;47.778;17.806;2023-12-22T04:56:36;10.07;;;1.88;;
47167;SDS011;32931;47.778;17.806;2023-12-22T04:59:02;8.23;;;1.50;;
47167;SDS011;32931;47.778;17.806;2023-12-22T05:01:28;11.45;;;2.08;;
47167;SDS011;32931;47.778;17.806;2023-12-22T05:03:54;11.43;;;1.85;;
47167;SDS011;32931;47.778;17.806;2023-12-22T05:06:20;9.20;;;1.67;;
47167;SDS011;32931;47.778;17.806;2023-12-22T05:08:46;19.58;;;2.25;;
47167;SDS011;32931;47.778;17.806;2023-12-22T05:11:12;10.20;;;1.75;;
47167;SDS011;32931;47.778;17.806;2023-12-22T05:13:39;10.30;;;1.95;;
47167;SDS011;32931;47.778;17.806;2023-12-22T05:16:05;10.23;;;2.00;;
47167;SDS011;32931;47.778;17.806;2023-12-22T05:18:32;10.07;;;1.85;;
47167;SDS011;32931;47.778;17.806;2023-12-22T05:20:58;8.07;;;1.70;;
47167;SDS011;32931;47.778;17.806;2023-12-22T05:23:24;17.38;;;2.90;;
47167;SDS011;32931;47.778;17.806;2023-12-22T05:25:50;10.27;;;2.40;;
47167;SDS011;32931;47.778;17.806;2023-12-22T05:28:16;10.90;;;1.70;;
47167;SDS011;32931;47.778;17.806;2023-12-22T05:30:43;10.57;;;1.95;;
47167;SDS011;32931;47.778;17.806;2023-12-22T05:33:09;13.75;;;2.08;;
47167;SDS011;32931;47.778;17.806;2023-12-22T05:35:35;16.30;;;2.35;;
47167;SDS011;32931;47.778;17.806;2023-12-22T05:38:01;12.27;;;2.30;;
47167;SDS011;32931;47.778;17.806;2023-12-22T05:40:27;11.25;;;1.98;;
47167;SDS011;32931;47.778;17.806;2023-12-22T05:42:53;9.73;;;2.17;;
47167;SDS011;32931;47.778;17.806;2023-12-22T05:45:19;10.13;;;2.25;;
47167;SDS011;32931;47.778;17.806;2023-12-22T05:47:45;10.45;;;1.80;;
47167;SDS011;32931;47.778;17.806;2023-12-22T05:50:12;12.43;;;1.63;;
47167;SDS011;32931;47.778;17.806;2023-12-22T05:52:38;11.77;;;1.85;;
47167;SDS011;32931;47.778;17.806;2023-12-22T05:55:04;11.57;;;2.08;;
47167;SDS011;32931;47.778;17.806;2023-12-22T05:57:31;12.10;;;1.85;;
47167;SDS011;32931;47.778;17.806;2023-12-22T05:59:57;6.03;;;1.25;;
47167;SDS011;32931;47.778;17.806;2023-12-22T06:02:24;12.02;;;1.80;;
47167;SDS011;32931;47.778;17.806;2023-12-22T06:04:51;11.35;;;1.42;;
47167;SDS011;32931;47.778;17.806;2023-12-22T06:07:17;9.88;;;1.60;;
47167;SDS011;32931;47.778;17.806;2023-12-22T06:09:45;10.70;;;1.40;;
47167;SDS011;32931;47.778;17.806;2023-12-22T06:12:11;8.10;;;1.20;;
47167;SDS011;32931;47.778;17.806;2023-12-22T06:14:37;5.72;;;1.35;;
47167;SDS011;32931;47.778;17.806;2023-12-22T06:17:03;12.32;;;1.65;;
47167;SDS011;32931;47.778;17.806;2023-12-22T06:19:29;8.85;;;1.17;;
47167;SDS011;32931;47.778;17.806;2023-12-22T06:21:56;9.80;;;1.63;;
47167;SDS011;32931;47.778;17.806;2023-12-22T06:24:25;7.30;;;1.40;;
47167;SDS011;32931;47.778;17.806;2023-12-22T06:26:51;8.52;;;1.50;;
47167;SDS011;32931;47.778;17.806;2023-12-22T06:29:18;6.25;;;1.30;;
47167;SDS011;32931;47.778;17.806;2023-12-22T06:31:44;6.78;;;1.25;;
47167;SDS011;32931;47.778;17.806;2023-12-22T06:34:10;8.32;;;1.60;;
47167;SDS011;32931;47.778;17.806;2023-12-22T06:36:36;6.88;;;1.63;;
47167;SDS011;32931;47.778;17.806;2023-12-22T06:39:02;7.22;;;1.60;;
47167;SDS011;32931;47.778;17.806;2023-12-22T06:41:29;7.03;;;1.60;;
47167;SDS011;32931;47.778;17.806;2023-12-22T06:43:56;6.97;;;1.40;;
47167;SDS011;32931;47.778;17.806;2023-12-22T06:46:25;6.90;;;1.65;;
47167;SDS011;32931;47.778;17.806;2023-12-22T06:48:51;7.43;;;1.67;;
47167;SDS011;32931;47.778;17.806;2023-12-22T06:53:47;9.73;;;1.88;;
47167;SDS011;32931;47.778;17.806;2023-12-22T06:56:18;9.27;;;2.00;;
47167;SDS011;32931;47.778;17.806;2023-12-22T06:58:46;5.57;;;1.50;;
47167;SDS011;32931;47.778;17.806;2023-12-22T07:03:47;5.05;;;1.83;;
47167;SDS011;32931;47.778;17.806;2023-12-22T07:06:14;6.88;;;2.03;;
47167;SDS011;32931;47.778;17.806;2023-12-22T07:08:41;11.63;;;2.42;;
47167;SDS011;32931;47.778;17.806;2023-12-22T07:11:11;7.22;;;1.85;;
47167;SDS011;32931;47.778;17.806;2023-12-22T07:13:37;9.60;;;2.10;;
47167;SDS011;32931;47.778;17.806;2023-12-22T07:16:04;7.13;;;2.00;;
47167;SDS011;32931;47.778;17.806;2023-12-22T07:18:31;10.75;;;2.20;;
47167;SDS011;32931;47.778;17.806;2023-12-22T07:20:57;10.75;;;2.10;;
47167;SDS011;32931;47.778;17.806;2023-12-22T07:23:24;8.63;;;2.05;;
47167;SDS011;32931;47.778;17.806;2023-12-22T07:25:50;8.60;;;1.65;;
47167;SDS011;32931;47.778;17.806;2023-12-22T07:28:17;7.72;;;2.30;;
47167;SDS011;32931;47.778;17.806;2023-12-22T07:30:43;5.85;;;1.50;;
47167;SDS011;32931;47.778;17.806;2023-12-22T07:33:09;7.40;;;1.70;;
47167;SDS011;32931;47.778;17.806;2023-12-22T07:35:35;8.90;;;2.00;;
47167;SDS011;32931;47.778;17.806;2023-12-22T07:38:01;5.50;;;1.77;;
47167;SDS011;32931;47.778;17.806;2023-12-22T07:40:28;7.00;;;1.80;;
47167;SDS011;32931;47.778;17.806;2023-12-22T07:42:56;8.23;;;1.58;;
47167;SDS011;32931;47.778;17.806;2023-12-22T07:45:22;11.55;;;1.95;;
47167;SDS011;32931;47.778;17.806;2023-12-22T07:47:48;10.70;;;2.00;;
47167;SDS011;32931;47.778;17.806;2023-12-22T07:50:15;8.43;;;1.95;;
47167;SDS011;32931;47.778;17.806;2023-12-22T07:52:41;6.05;;;1.60;;
47167;SDS011;32931;47.778;17.806;2023-12-22T07:55:08;11.27;;;2.60;;
47167;SDS011;32931;47.778;17.806;2023-12-22T07:57:38;15.30;;;2.00;;
47167;SDS011;32931;47.778;17.806;2023-12-22T08:00:04;9.40;;;2.42;;
47167;SDS011;32931;47.778;17.806;2023-12-22T08:02:31;10.13;;;2.55;;
47167;SDS011;32931;47.778;17.806;2023-12-22T08:04:57;8.18;;;1.83;;
47167;SDS011;32931;47.778;17.806;2023-12-22T08:07:23;12.80;;;2.15;;
47167;SDS011;32931;47.778;17.806;2023-12-22T08:09:49;6.88;;;2.67;;
47167;SDS011;32931;47.778;17.806;2023-12-22T08:12:15;11.55;;;2.50;;
47167;SDS011;32931;47.778;17.806;2023-12-22T08:14:42;14.05;;;2.72;;
47167;SDS011;32931;47.778;17.806;2023-12-22T08:17:08;19.05;;;2.67;;
47167;SDS011;32931;47.778;17.806;2023-12-22T08:19:35;12.13;;;3.00;;
47167;SDS011;32931;47.778;17.806;2023-12-22T08:22:03;12.65;;;4.43;;
47167;SDS011;32931;47.778;17.806;2023-12-22T08:24:29;11.65;;;4.13;;
47167;SDS011;32931;47.778;17.806;2023-12-22T08:26:55;14.57;;;3.08;;
47167;SDS011;32931;47.778;17.806;2023-12-22T08:29:21;11.18;;;2.15;;
47167;SDS011;32931;47.778;17.806;2023-12-22T08:31:47;7.07;;;1.90;;
47167;SDS011;32931;47.778;17.806;2023-12-22T08:34:13;9.45;;;1.77;;
47167;SDS011;32931;47.778;17.806;2023-12-22T08:36:39;9.60;;;1.52;;
47167;SDS011;32931;47.778;17.806;2023-12-22T08:39:05;8.15;;;2.00;;
47167;SDS011;32931;47.778;17.806;2023-12-22T08:41:33;11.05;;;3.47;;
47167;SDS011;32931;47.778;17.806;2023-12-22T08:44:02;8.63;;;2.40;;
47167;SDS011;32931;47.778;17.806;2023-12-22T08:46:29;14.25;;;4.25;;
47167;SDS011;32931;47.778;17.806;2023-12-22T08:48:56;14.05;;;3.88;;
47167;SDS011;32931;47.778;17.806;2023-12-22T08:51:28;11.85;;;2.55;;
47167;SDS011;32931;47.778;17.806;2023-12-22T08:53:54;9.52;;;2.58;;
47167;SDS011;32931;47.778;17.806;2023-12-22T08:56:21;10.68;;;2.45;;
47167;SDS011;32931;47.778;17.806;2023-12-22T08:58:48;10.18;;;3.47;;
47167;SDS011;32931;47.778;17.806;2023-12-22T09:01:17;8.48;;;3.40;;
47167;SDS011;32931;47.778;17.806;2023-12-22T09:03:44;10.75;;;3.00;;
47167;SDS011;32931;47.778;17.806;2023-12-22T09:06:15;8.52;;;2.97;;
47167;SDS011;32931;47.778;17.806;2023-12-22T09:11:11;9.75;;;3.05;;
47167;SDS011;32931;47.778;17.806;2023-12-22T09:13:38;7.63;;;2.65;;
47167;SDS011;32931;47.778;17.806;2023-12-22T09:16:04;15.13;;;5.50;;
47167;SDS011;32931;47.778;17.806;2023-12-22T09:18:31;8.43;;;2.90;;
47167;SDS011;32931;47.778;17.806;2023-12-22T09:20:57;15.48;;;4.22;;
47167;SDS011;32931;47.778;17.806;2023-12-22T09:23:24;7.75;;;3.42;;
47167;SDS011;32931;47.778;17.806;2023-12-22T09:25:53;6.70;;;3.05;;
47167;SDS011;32931;47.778;17.806;2023-12-22T09:28:19;6.40;;;2.33;;
47167;SDS011;32931;47.778;17.806;2023-12-22T09:30:45;7.50;;;3.08;;
47167;SDS011;32931;47.778;17.806;2023-12-22T09:33:11;5.80;;;2.63;;
47167;SDS011;32931;47.778;17.806;2023-12-22T09:35:38;10.68;;;3.05;;
47167;SDS011;32931;47.778;17.806;2023-12-22T09:38:10;5.72;;;2.47;;
47167;SDS011;32931;47.778;17.806;2023-12-22T09:40:38;5.68;;;2.00;;
47167;SDS011;32931;47.778;17.806;2023-12-22T09:43:05;7.75;;;2.55;;
47167;SDS011;32931;47.778;17.806;2023-12-22T09:45:32;9.50;;;3.10;;
47167;SDS011;32931;47.778;17.806;2023-12-22T09:47:59;10.18;;;2.92;;
47167;SDS011;32931;47.778;17.806;2023-12-22T09:50:27;8.23;;;2.40;;
47167;SDS011;32931;47.778;17.806;2023-12-22T09:52:54;5.38;;;2.17;;
47167;SDS011;32931;47.778;17.806;2023-12-22T09:55:28;7.13;;;1.95;;
47167;SDS011;32931;47.778;17.806;2023-12-22T09:57:58;6.82;;;2.30;;
47167;SDS011;32931;47.778;17.806;2023-12-22T10:00:26;6.82;;;2.30;;
47167;SDS011;32931;47.778;17.806;2023-12-22T10:02:55;5.68;;;2.22;;
47167;SDS011;32931;47.778;17.806;2023-12-22T10:05:24;3.40;;;1.20;;
47167;SDS011;32931;47.778;17.806;2023-12-22T10:07:51;6.90;;;2.72;;
47167;SDS011;32931;47.778;17.806;2023-12-22T10:10:22;5.25;;;1.67;;
47167;SDS011;32931;47.778;17.806;2023-12-22T10:12:51;6.05;;;1.10;;
47167;SDS011;32931;47.778;17.806;2023-12-22T10:15:19;4.10;;;1.67;;
47167;SDS011;32931;47.778;17.806;2023-12-22T10:17:53;4.57;;;1.00;;
47167;SDS011;32931;47.778;17.806;2023-12-22T10:20:20;7.65;;;2.08;;
47167;SDS011;32931;47.778;17.806;2023-12-22T10:22:49;5.20;;;2.15;;
47167;SDS011;32931;47.778;17.806;2023-12-22T10:25:15;2.92;;;0.82;;
47167;SDS011;32931;47.778;17.806;2023-12-22T10:27:48;6.05;;;1.63;;
47167;SDS011;32931;47.778;17.806;2023-12-22T10:30:18;7.13;;;1.20;;
47167;SDS011;32931;47.778;17.806;2023-12-22T10:32:46;3.42;;;1.02;;
47167;SDS011;32931;47.778;17.806;2023-12-22T10:35:12;5.75;;;0.85;;
47167;SDS011;32931;47.778;17.806;2023-12-22T10:37:40;3.17;;;1.00;;
47167;SDS011;32931;47.778;17.806;2023-12-22T10:40:08;5.45;;;2.15;;
47167;SDS011;32931;47.778;17.806;2023-12-22T10:42:37;5.22;;;1.73;;
47167;SDS011;32931;47.778;17.806;2023-12-22T10:45:06;3.42;;;1.85;;
47167;SDS011;32931;47.778;17.806;2023-12-22T10:47:33;3.13;;;0.80;;
47167;SDS011;32931;47.778;17.806;2023-12-22T10:50:03;3.70;;;1.20;;
47167;SDS011;32931;47.778;17.806;2023-12-22T10:52:29;2.33;;;0.70;;
47167;SDS011;32931;47.778;17.806;2023-12-22T10:54:59;6.25;;;1.30;;
47167;SDS011;32931;47.778;17.806;2023-12-22T10:57:28;2.90;;;1.10;;
47167;SDS011;32931;47.778;17.806;2023-12-22T10:59:55;4.70;;;1.52;;
47167;SDS011;32931;47.778;17.806;2023-12-22T11:02:23;4.65;;;1.40;;
47167;SDS011;32931;47.778;17.806;2023-12-22T11:04:57;4.50;;;0.93;;
47167;SDS011;32931;47.778;17.806;2023-12-22T11:07:24;2.22;;;0.90;;
47167;SDS011;32931;47.778;17.806;2023-12-22T11:09:51;3.00;;;0.70;;
47167;SDS011;32931;47.778;17.806;2023-12-22T11:12:19;4.88;;;1.73;;
47167;SDS011;32931;47.778;17.806;2023-12-22T11:14:46;11.57;;;3.83;;
47167;SDS011;32931;47.778;17.806;2023-12-22T11:17:19;8.32;;;1.88;;
47167;SDS011;32931;47.778;17.806;2023-12-22T11:19:47;10.05;;;1.40;;
47167;SDS011;32931;47.778;17.806;2023-12-22T11:22:16;4.00;;;1.10;;
47167;SDS011;32931;47.778;17.806;2023-12-22T11:24:46;3.15;;;1.42;;
47167;SDS011;32931;47.778;17.806;2023-12-22T11:27:17;5.80;;;1.05;;
47167;SDS011;32931;47.778;17.806;2023-12-22T11:29:47;3.05;;;1.13;;
47167;SDS011;32931;47.778;17.806;2023-12-22T11:32:18;3.40;;;1.77;;
47167;SDS011;32931;47.778;17.806;2023-12-22T11:34:45;3.83;;;1.48;;
47167;SDS011;32931;47.778;17.806;2023-12-22T11:37:12;5.03;;;2.00;;
47167;SDS011;32931;47.778;17.806;2023-12-22T11:39:40;4.47;;;1.75;;
47167;SDS011;32931;47.778;17.806;2023-12-22T11:42:08;3.65;;;1.55;;
47167;SDS011;32931;47.778;17.806;2023-12-22T11:44:36;8.02;;;2.50;;
47167;SDS011;32931;47.778;17.806;2023-12-22T11:47:06;8.70;;;2.45;;
47167;SDS011;32931;47.778;17.806;2023-12-22T11:49:35;3.53;;;1.00;;
47167;SDS011;32931;47.778;17.806;2023-12-22T11:52:11;3.85;;;0.80;;
47167;SDS011;32931;47.778;17.806;2023-12-22T11:54:45;5.28;;;0.93;;
47167;SDS011;32931;47.778;17.806;2023-12-22T11:59:58;4.97;;;1.80;;
47167;SDS011;32931;47.778;17.806;2023-12-22T12:03:08;5.30;;;1.48;;
47167;SDS011;32931;47.778;17.806;2023-12-22T12:05:34;2.85;;;0.70;;
47167;SDS011;32931;47.778;17.806;2023-12-22T12:08:06;6.18;;;1.10;;
47167;SDS011;32931;47.778;17.806;2023-12-22T12:10:50;6.10;;;1.27;;
47167;SDS011;32931;47.778;17.806;2023-12-22T12:13:22;10.15;;;1.40;;
47167;SDS011;32931;47.778;17.806;2023-12-22T12:15:50;2.53;;;0.90;;
47167;SDS011;32931;47.778;17.806;2023-12-22T12:18:21;2.72;;;0.75;;
47167;SDS011;32931;47.778;17.806;2023-12-22T12:20:48;2.33;;;0.98;;
47167;SDS011;32931;47.778;17.806;2023-12-22T12:23:15;2.17;;;0.60;;
47167;SDS011;32931;47.778;17.806;2023-12-22T12:25:42;4.50;;;1.65;;
47167;SDS011;32931;47.778;17.806;2023-12-22T12:28:08;3.97;;;1.02;;
47167;SDS011;32931;47.778;17.806;2023-12-22T12:30:35;2.38;;;0.90;;
47167;SDS011;32931;47.778;17.806;2023-12-22T12:33:09;8.70;;;1.05;;
47167;SDS011;32931;47.778;17.806;2023-12-22T12:35:39;2.75;;;0.80;;
47167;SDS011;32931;47.778;17.806;2023-12-22T12:38:06;5.95;;;1.70;;
47167;SDS011;32931;47.778;17.806;2023-12-22T12:40:33;5.93;;;1.00;;
47167;SDS011;32931;47.778;17.806;2023-12-22T12:43:01;3.03;;;1.05;;
47167;SDS011;32931;47.778;17.806;2023-12-22T12:45:28;4.57;;;2.03;;
47167;SDS011;32931;47.778;17.806;2023-12-22T12:47:57;3.28;;;1.30;;
47167;SDS011;32931;47.778;17.806;2023-12-22T12:50:25;2.15;;;1.30;;
47167;SDS011;32931;47.778;17.806;2023-12-22T12:52:52;2.60;;;1.05;;
47167;SDS011;32931;47.778;17.806;2023-12-22T12:55:21;4.22;;;0.98;;
47167;SDS011;32931;47.778;17.806;2023-12-22T12:57:49;3.47;;;1.13;;
47167;SDS011;32931;47.778;17.806;2023-12-22T13:00:16;3.03;;;1.00;;
47167;SDS011;32931;47.778;17.806;2023-12-22T13:02:56;2.42;;;0.80;;
47167;SDS011;32931;47.778;17.806;2023-12-22T13:05:28;3.28;;;1.17;;
47167;SDS011;32931;47.778;17.806;2023-12-22T13:08:05;5.53;;;2.80;;
47167;SDS011;32931;47.778;17.806;2023-12-22T13:10:41;80.28;;;3.28;;
47167;SDS011;32931;47.778;17.806;2023-12-22T13:13:07;18.48;;;1.10;;
47167;SDS011;32931;47.778;17.806;2023-12-22T13:15:33;5.75;;;0.70;;
47167;SDS011;32931;47.778;17.806;2023-12-22T13:17:59;4.50;;;0.70;;
47167;SDS011;32931;47.778;17.806;2023-12-22T13:20:27;2.38;;;0.70;;
47167;SDS011;32931;47.778;17.806;2023-12-22T13:22:53;2.60;;;0.60;;
47167;SDS011;32931;47.778;17.806;2023-12-22T13:25:20;3.42;;;0.70;;
47167;SDS011;32931;47.778;17.806;2023-12-22T13:27:49;2.92;;;0.60;;
47167;SDS011;32931;47.778;17.806;2023-12-22T13:30:34;4.85;;;0.93;;
47167;SDS011;32931;47.778;17.806;2023-12-22T13:33:03;9.23;;;1.08;;
47167;SDS011;32931;47.778;17.806;2023-12-22T13:35:29;2.65;;;0.85;;
47167;SDS011;32931;47.778;17.806;2023-12-22T13:37:56;6.70;;;1.10;;
47167;SDS011;32931;47.778;17.806;2023-12-22T13:40:24;4.20;;;0.85;;
47167;SDS011;32931;47.778;17.806;2023-12-22T13:42:54;4.80;;;1.30;;
47167;SDS011;32931;47.778;17.806;2023-12-22T13:45:23;11.48;;;3.08;;
47167;SDS011;32931;47.778;17.806;2023-12-22T13:47:52;4.30;;;1.27;;
47167;SDS011;32931;47.778;17.806;2023-12-22T13:50:19;5.43;;;1.50;;
47167;SDS011;32931;47.778;17.806;2023-12-22T13:52:48;3.33;;;1.70;;
47167;SDS011;32931;47.778;17.806;2023-12-22T13:55:19;4.78;;;0.90;;
47167;SDS011;32931;47.778;17.806;2023-12-22T13:57:48;4.15;;;0.55;;
47167;SDS011;32931;47.778;17.806;2023-12-22T14:02:49;6.45;;;1.20;;
47167;SDS011;32931;47.778;17.806;2023-12-22T14:05:16;4.38;;;1.30;;
47167;SDS011;32931;47.778;17.806;2023-12-22T14:07:45;8.95;;;3.30;;
47167;SDS011;32931;47.778;17.806;2023-12-22T14:10:12;9.02;;;1.92;;
47167;SDS011;32931;47.778;17.806;2023-12-22T14:12:39;3.72;;;0.90;;
47167;SDS011;32931;47.778;17.806;2023-12-22T14:15:06;6.60;;;1.13;;
47167;SDS011;32931;47.778;17.806;2023-12-22T14:17:33;6.72;;;2.20;;
47167;SDS011;32931;47.778;17.806;2023-12-22T14:20:00;7.60;;;3.40;;
47167;SDS011;32931;47.778;17.806;2023-12-22T14:22:27;13.07;;;4.65;;
47167;SDS011;32931;47.778;17.806;2023-12-22T14:24:53;8.20;;;3.35;;
47167;SDS011;32931;47.778;17.806;2023-12-22T14:27:22;7.55;;;2.40;;
47167;SDS011;32931;47.778;17.806;2023-12-22T14:29:50;6.03;;;2.63;;
47167;SDS011;32931;47.778;17.806;2023-12-22T14:32:16;8.05;;;3.90;;
47167;SDS011;32931;47.778;17.806;2023-12-22T14:34:45;10.68;;;5.30;;
47167;SDS011;32931;47.778;17.806;2023-12-22T14:37:17;9.35;;;4.70;;
47167;SDS011;32931;47.778;17.806;2023-12-22T14:39:43;11.68;;;4.50;;
47167;SDS011;32931;47.778;17.806;2023-12-22T14:42:13;11.57;;;5.10;;
47167;SDS011;32931;47.778;17.806;2023-12-22T14:44:41;13.30;;;4.00;;
47167;SDS011;32931;47.778;17.806;2023-12-22T14:47:07;11.82;;;4.25;;